Time;durP1;ratioP1;P1;durP2;ratioP2;P2;SDS_P1;SDS_P2;PMS_P1;PMS_P2;Temp;Humidity;BMP_temperature;BMP_pressure;BME280_temperature;BME280_humidity;BME280_pressure;Samples;Min_cycle;Max_cycle;Signal;HPM_P1;HPM_P2
2022/08/22 00:00:19;;;;;;;13.85;9.30;;;;;;;22.78;100.00;98486.38;5071781;28;20200;-58
2022/08/22 00:03:00;;;;;;;10.45;9.40;;;;;;;22.76;100.00;98499.75;5071793;28;20257;-57
2022/08/22 00:05:35;;;;;;;10.20;9.13;;;;;;;22.78;100.00;98502.25;5071852;28;20208;-58
2022/08/22 00:08:09;;;;;;;12.15;9.65;;;;;;;22.68;100.00;98496.97;5071509;28;20222;-57
2022/08/22 00:10:54;;;;;;;14.35;9.38;;;;;;;22.63;100.00;98509.78;5071734;28;20241;-58
2022/08/22 00:13:31;;;;;;;11.05;9.80;;;;;;;22.59;100.00;98508.41;5071587;28;20203;-58
2022/08/22 00:16:07;;;;;;;12.70;8.68;;;;;;;22.50;100.00;98503.97;5068806;28;20200;-58
2022/08/22 00:18:43;;;;;;;10.80;8.93;;;;;;;22.42;100.00;98506.50;5071563;28;20684;-58
2022/08/22 00:21:15;;;;;;;14.57;9.25;;;;;;;22.30;100.00;98497.91;5070360;28;20199;-57
2022/08/22 00:23:48;;;;;;;11.45;8.98;;;;;;;22.34;100.00;98519.63;5071237;28;20279;-57
2022/08/22 00:26:28;;;;;;;14.90;10.07;;;;;;;22.35;100.00;98515.97;5071190;28;20236;-57
2022/08/22 00:29:01;;;;;;;11.45;8.82;;;;;;;22.36;100.00;98526.41;5071055;28;20234;-57
2022/08/22 00:31:33;;;;;;;13.50;9.65;;;;;;;22.32;100.00;98518.94;5070892;28;20203;-57
2022/08/22 00:34:06;;;;;;;11.13;9.93;;;;;;;22.31;100.00;98517.25;5071166;28;20582;-57
2022/08/22 00:36:39;;;;;;;12.48;9.60;;;;;;;22.39;100.00;98512.06;5070720;28;20650;-58
2022/08/22 00:39:17;;;;;;;11.90;9.13;;;;;;;22.36;100.00;98507.91;5070727;28;20198;-59
2022/08/22 00:42:01;;;;;;;11.57;9.13;;;;;;;22.32;100.00;98511.81;5070595;28;20242;-58
2022/08/22 00:44:57;;;;;;;12.63;9.52;;;;;;;21.96;100.00;98459.69;5070608;28;20594;-58
2022/08/22 00:47:45;;;;;;;16.27;10.05;;;;;;;22.30;100.00;98511.13;5070560;28;20203;-58
2022/08/22 00:50:55;;;;;;;13.90;9.48;;;;;;;22.24;100.00;98509.03;5070632;28;20200;-58
2022/08/22 00:53:39;;;;;;;13.90;9.20;;;;;;;22.15;100.00;98504.59;5059799;28;20204;-58
2022/08/22 00:56:29;;;;;;;12.05;9.43;;;;;;;22.04;100.00;98505.59;5070804;28;20199;-57
2022/08/22 00:59:16;;;;;;;11.35;9.18;;;;;;;22.04;100.00;98504.75;5070665;28;20194;-58
2022/08/22 01:01:57;;;;;;;17.10;9.77;;;;;;;21.96;100.00;98502.81;5070918;28;20200;-58
2022/08/22 01:04:47;;;;;;;11.27;9.05;;;;;;;21.86;100.00;98498.50;5070793;28;20283;-58
2022/08/22 01:07:30;;;;;;;13.38;8.93;;;;;;;21.89;100.00;98495.59;5070289;28;20196;-58
2022/08/22 01:10:13;;;;;;;14.30;9.90;;;;;;;21.92;100.00;98490.00;5070304;28;20204;-59
2022/08/22 01:12:58;;;;;;;12.50;9.43;;;;;;;21.90;100.00;98491.94;5070552;28;20670;-58
2022/08/22 01:15:30;;;;;;;9.73;8.70;;;;;;;21.93;100.00;98499.59;5070515;28;20201;-58
2022/08/22 01:18:35;;;;;;;15.68;9.90;;;;;;;21.80;100.00;98499.88;5070172;28;20210;-58
2022/08/22 01:21:37;;;;;;;13.80;9.73;;;;;;;21.76;100.00;98513.53;5067690;28;20203;-57
2022/08/22 01:28:11;;;;;;;14.15;10.20;;;;;;;21.75;100.00;98520.59;5069657;28;20203;-58
2022/08/22 01:30:51;;;;;;;11.25;10.20;;;;;;;;;;5069917;28;20253;-58
2022/08/22 01:33:49;;;;;;;12.02;9.50;;;;;;;21.68;100.00;98520.31;5069836;28;20294;-58
2022/08/22 01:36:30;;;;;;;14.18;10.02;;;;;;;21.74;100.00;98511.84;5069954;28;20200;-58
2022/08/22 01:39:30;;;;;;;11.23;10.00;;;;;;;21.69;100.00;98515.88;5070014;28;20192;-57
2022/08/22 01:42:30;;;;;;;20.13;10.30;;;;;;;21.67;100.00;98516.00;5069912;28;20192;-57
2022/08/22 01:45:26;;;;;;;11.23;10.13;;;;;;;21.61;100.00;98487.50;5069963;28;20283;-57
2022/08/22 01:47:57;;;;;;;11.20;9.85;;;;;;;21.72;100.00;98505.88;5069618;28;20226;-57
2022/08/22 01:50:32;;;;;;;11.02;9.50;;;;;;;21.77;100.00;98504.63;5069771;28;20615;-57
2022/08/22 01:53:02;;;;;;;15.95;10.10;;;;;;;;;;5069939;28;20195;-57
2022/08/22 01:55:35;;;;;;;11.25;9.65;;;;;;;21.66;100.00;98509.06;5069784;28;20200;-57
2022/08/22 01:58:13;;;;;;;13.15;10.40;;;;;;;21.62;100.00;98507.66;5069623;28;20279;-57
2022/08/22 02:00:57;;;;;;;11.68;10.05;;;;;;;21.57;100.00;98514.31;5069595;28;20587;-58
2022/08/22 02:03:30;;;;;;;13.27;10.35;;;;;;;21.58;100.00;98518.63;5069728;28;20279;-58
2022/08/22 02:06:02;;;;;;;11.88;10.43;;;;;;;21.55;100.00;98521.56;5069412;28;20287;-58
2022/08/22 02:08:38;;;;;;;13.82;10.50;;;;;;;21.59;100.00;98526.41;5069807;28;20601;-56
2022/08/22 02:11:07;;;;;;;11.48;10.43;;;;;;;21.64;100.00;98531.31;5069677;28;20195;-57
2022/08/22 02:13:50;;;;;;;11.02;9.70;;;;;;;21.56;100.00;98518.75;5069334;28;20206;-59
2022/08/22 02:16:27;;;;;;;11.93;9.95;;;;;;;21.56;100.00;98531.97;5069421;28;20277;-58
2022/08/22 02:19:05;;;;;;;11.02;9.93;;;;;;;21.59;100.00;98525.59;5069709;28;20250;-57
2022/08/22 02:21:43;;;;;;;10.93;9.82;;;;;;;21.57;100.00;98525.72;5069570;28;20234;-57
2022/08/22 02:24:28;;;;;;;14.93;10.35;;;;;;;21.67;100.00;98518.63;5069382;28;20199;-57
2022/08/22 02:27:08;;;;;;;14.30;11.02;;;;;;;21.78;100.00;98530.06;5069216;28;20294;-57
2022/08/22 02:29:42;;;;;;;12.77;9.95;;;;;;;21.65;100.00;98517.97;5069357;28;20314;-57
2022/08/22 02:32:19;;;;;;;11.48;10.32;;;;;;;21.72;100.00;98524.34;5069500;28;20192;-57
2022/08/22 02:34:56;;;;;;;11.65;10.55;;;;;;;21.79;100.00;98523.78;5069319;28;20257;-57
2022/08/22 02:37:35;;;;;;;13.63;10.77;;;;;;;21.75;100.00;98525.88;5069213;28;20284;-57
2022/08/22 02:40:10;;;;;;;13.35;10.77;;;;;;;21.75;100.00;98520.59;5069634;28;20590;-58
2022/08/22 02:42:45;;;;;;;11.32;10.23;;;;;;;21.66;100.00;98514.34;5069291;28;20191;-58
2022/08/22 02:45:22;;;;;;;14.57;10.15;;;;;;;21.62;100.00;98527.97;5071586;28;20539;-58
2022/08/22 02:47:56;;;;;;;15.35;10.70;;;;;;;21.63;100.00;98519.91;5072846;28;20191;-59
2022/08/22 02:50:31;;;;;;;13.07;10.70;;;;;;;21.62;100.00;98520.88;5073283;28;20307;-58
2022/08/22 02:53:04;;;;;;;14.50;10.75;;;;;;;21.67;100.00;98526.56;5072915;28;20230;-58
2022/08/22 02:55:47;;;;;;;12.38;11.05;;;;;;;21.77;100.00;98521.31;5073140;28;20210;-57
2022/08/22 02:58:24;;;;;;;15.40;10.90;;;;;;;21.85;100.00;98528.53;5072660;28;20198;-59
2022/08/22 03:01:09;;;;;;;12.40;11.02;;;;;;;21.81;100.00;98527.97;5073125;28;20210;-59
2022/08/22 03:03:41;;;;;;;13.43;10.93;;;;;;;21.94;100.00;98522.41;5073146;28;20593;-57
2022/08/22 03:06:33;;;;;;;12.52;11.25;;;;;;;21.99;100.00;98536.91;5072724;28;20200;-57
2022/08/22 03:09:07;;;;;;;13.95;10.63;;;;;;;22.04;100.00;98539.94;5072463;28;20234;-59
2022/08/22 03:11:39;;;;;;;11.27;9.88;;;;;;;21.95;100.00;98546.03;5072755;28;20223;-58
2022/08/22 03:14:13;;;;;;;11.95;10.85;;;;;;;21.91;100.00;98533.25;5072814;28;20196;-57
2022/08/22 03:16:49;;;;;;;11.88;10.63;;;;;;;21.95;100.00;98537.28;5072547;28;20200;-57
2022/08/22 03:19:22;;;;;;;13.05;11.05;;;;;;;21.97;100.00;98538.81;5072435;28;20195;-58
2022/08/22 03:21:58;;;;;;;11.95;10.82;;;;;;;21.94;100.00;98535.63;5072663;28;20670;-57
2022/08/22 03:24:31;;;;;;;17.92;11.60;;;;;;;21.96;100.00;98534.50;5072293;28;20239;-58
2022/08/22 03:27:07;;;;;;;15.82;12.07;;;;;;;21.85;100.00;98508.22;5072314;28;20204;-59
2022/08/22 03:29:38;;;;;;;11.30;10.18;;;;;;;22.08;100.00;98541.34;5072393;28;20222;-59
2022/08/22 03:32:12;;;;;;;10.63;9.73;;;;;;;22.14;100.00;98533.81;5070364;28;20265;-60
2022/08/22 03:34:55;;;;;;;14.00;10.00;;;;;;;22.11;100.00;98532.31;5072228;28;20236;-58
2022/08/22 03:37:31;;;;;;;13.27;11.05;;;;;;;22.09;100.00;98537.75;5071912;28;20239;-62
2022/08/22 03:40:03;;;;;;;18.13;9.75;;;;;;;21.99;100.00;98521.06;5068687;28;20278;-62
2022/08/22 03:43:04;;;;;;;21.40;11.55;;;;;;;22.07;100.00;98537.03;5072380;28;20193;-64
2022/08/22 03:46:00;;;;;;;14.27;10.80;;;;;;;22.14;100.00;98545.22;5071950;28;20294;-65
2022/08/22 03:49:11;;;;;;;12.30;11.00;;;;;;;22.06;100.00;98543.28;5071994;28;20219;-60
2022/08/22 03:51:55;;;;;;;12.25;11.07;;;;;;;22.03;100.00;98553.31;5038774;28;20200;-62
2022/08/22 03:54:51;;;;;;;13.10;11.18;;;;;;;21.97;100.00;98543.28;5071879;28;20625;-61
2022/08/22 03:57:56;;;;;;;13.63;11.00;;;;;;;22.06;100.00;98548.59;5071751;28;20219;-61
2022/08/22 04:00:47;;;;;;;18.25;11.10;;;;;;;22.14;100.00;98558.44;5071917;28;20283;-62
2022/08/22 04:03:54;;;;;;;13.48;11.40;;;;;;;22.13;100.00;98569.97;5071650;28;20198;-62
2022/08/22 04:07:07;;;;;;;15.68;10.75;;;;;;;22.08;100.00;98562.50;5071653;28;20295;-61
2022/08/22 04:09:55;;;;;;;22.73;15.90;;;;;;;21.96;100.00;98555.66;5035322;28;20234;-62
2022/08/22 04:12:57;;;;;;;14.05;11.07;;;;;;;22.00;100.00;98564.19;5071738;28;20578;-62
2022/08/22 04:15:57;;;;;;;13.02;11.75;;;;;;;22.01;100.00;98565.81;5002981;28;20282;-62
2022/08/22 04:18:40;;;;;;;15.07;11.85;;;;;;;22.02;100.00;98560.41;5036727;28;20206;-64
2022/08/22 04:21:24;;;;;;;15.70;12.65;;;;;;;22.09;100.00;98572.09;5071710;28;20308;-62
2022/08/22 04:24:11;;;;;;;15.77;12.52;;;;;;;22.13;100.00;98572.63;5071345;28;20471;-61
2022/08/22 04:26:45;;;;;;;25.98;14.57;;;;;;;22.15;100.00;98554.00;5071593;28;20199;-60
2022/08/22 04:29:21;;;;;;;14.50;12.27;;;;;;;22.60;100.00;98564.78;5071530;28;20806;-60
2022/08/22 04:31:54;;;;;;;15.32;12.20;;;;;;;23.29;100.00;98569.69;5071392;28;20677;-63
2022/08/22 04:34:26;;;;;;;15.40;11.10;;;;;;;24.12;100.00;98573.91;5071422;28;20721;-63
2022/08/22 04:36:56;;;;;;;18.05;11.57;;;;;;;24.99;100.00;98568.59;5070909;28;20200;-64
2022/08/22 04:39:30;;;;;;;23.63;12.27;;;;;;;25.91;100.00;98578.41;5070170;28;20242;-65
2022/08/22 04:42:05;;;;;;;16.13;11.98;;;;;;;26.54;100.00;98575.94;5070274;28;20224;-64
2022/08/22 04:44:46;;;;;;;21.23;10.75;;;;;;;27.54;100.00;98582.47;5070315;28;20286;-64
2022/08/22 04:47:24;;;;;;;19.40;12.23;;;;;;;28.20;96.33;98590.97;5070626;28;20202;-65
2022/08/22 04:50:04;;;;;;;14.93;12.02;;;;;;;28.59;94.74;98604.16;5070042;28;20215;-63
2022/08/22 04:52:53;;;;;;;14.20;12.18;;;;;;;28.96;92.92;98604.16;5050788;28;20286;-64
2022/08/22 04:55:31;;;;;;;19.08;11.05;;;;;;;29.34;90.30;98599.56;5051152;28;20193;-64
2022/08/22 04:58:08;;;;;;;21.48;10.45;;;;;;;30.17;87.10;98599.09;5050921;28;20284;-62
2022/08/22 05:00:41;;;;;;;12.23;11.05;;;;;;;30.76;82.27;98609.53;5050755;28;20200;-62
2022/08/22 05:03:12;;;;;;;18.42;11.75;;;;;;;31.49;78.37;98613.47;5050686;28;20196;-61
2022/08/22 05:05:41;;;;;;;19.08;11.25;;;;;;;31.30;77.95;98617.72;5050848;28;20310;-63
2022/08/22 05:08:13;;;;;;;16.05;10.15;;;;;;;30.88;78.21;98613.31;5050625;28;20204;-62
2022/08/22 05:10:45;;;;;;;11.57;10.23;;;;;;;30.98;78.99;98626.38;5050687;28;20617;-62
2022/08/22 05:13:18;;;;;;;14.35;10.23;;;;;;;31.83;75.88;98630.59;5050883;28;20197;-61
2022/08/22 05:15:48;;;;;;;10.50;9.35;;;;;;;32.35;72.49;98643.34;5050488;28;20192;-62
2022/08/22 05:18:21;;;;;;;11.63;8.98;;;;;;;32.61;71.09;98632.63;5050785;28;20211;-61
2022/08/22 05:20:51;;;;;;;8.55;7.55;;;;;;;32.97;69.93;98642.13;5050431;28;20204;-61
2022/08/22 05:23:26;;;;;;;11.60;8.18;;;;;;;33.94;65.21;98647.47;5050598;28;20597;-61
2022/08/22 05:25:57;;;;;;;8.45;7.75;;;;;;;34.43;61.01;98654.84;5050584;28;20203;-61
2022/08/22 05:28:32;;;;;;;10.43;8.00;;;;;;;34.63;61.27;98651.22;5050603;28;20197;-62
2022/08/22 05:31:05;;;;;;;9.88;8.73;;;;;;;34.79;59.02;98650.69;5050362;28;20227;-61
2022/08/22 05:33:36;;;;;;;8.90;7.63;;;;;;;34.87;58.15;98656.63;5050688;28;20200;-60
2022/08/22 05:36:08;;;;;;;9.27;7.55;;;;;;;35.42;57.01;98659.44;5050386;28;20319;-59
2022/08/22 05:38:40;;;;;;;8.68;7.15;;;;;;;35.94;54.91;98666.09;5050057;28;20774;-60
2022/08/22 05:41:12;;;;;;;8.20;7.50;;;;;;;36.34;54.79;98668.28;5050725;28;20219;-61
2022/08/22 05:43:41;;;;;;;8.52;7.45;;;;;;;36.40;52.75;98669.22;5050414;28;20204;-61
2022/08/22 05:46:17;;;;;;;8.15;7.45;;;;;;;36.26;53.51;98671.28;5050211;28;20204;-60
2022/08/22 05:48:52;;;;;;;7.55;6.85;;;;;;;36.82;52.22;98672.75;5049891;28;20699;-61
2022/08/22 05:51:25;;;;;;;10.00;7.40;;;;;;;37.26;49.62;98669.47;5049696;28;20597;-61
2022/08/22 05:54:03;;;;;;;7.45;6.85;;;;;;;37.66;48.31;98675.00;5049948;28;20206;-63
2022/08/22 05:56:36;;;;;;;8.52;7.72;;;;;;;37.39;48.37;98653.00;5049897;28;20681;-61
2022/08/22 05:59:11;;;;;;;8.43;7.07;;;;;;;37.33;48.67;98675.63;5049733;28;20678;-61
2022/08/22 06:01:53;;;;;;;12.73;8.20;;;;;;;37.48;48.87;98679.69;5049602;28;20670;-61
2022/08/22 06:04:30;;;;;;;8.93;8.00;;;;;;;37.40;48.54;98673.59;5050142;28;20283;-61
2022/08/22 06:07:02;;;;;;;8.43;7.63;;;;;;;36.88;49.24;98685.34;5049914;28;20241;-61
2022/08/22 06:09:34;;;;;;;8.27;7.60;;;;;;;37.17;49.11;98670.91;5049449;28;20223;-61
2022/08/22 06:12:06;;;;;;;9.98;7.63;;;;;;;37.37;48.62;98676.78;5049599;28;20286;-61
2022/08/22 06:14:41;;;;;;;9.88;7.40;;;;;;;37.83;47.49;98669.63;5049897;28;20616;-61
2022/08/22 06:17:14;;;;;;;13.60;8.35;;;;;;;37.96;47.38;98674.78;5049792;28;20588;-62
2022/08/22 06:19:45;;;;;;;11.48;7.90;;;;;;;37.55;48.33;98665.00;5051594;28;20647;-61
2022/08/22 06:22:15;;;;;;;10.02;7.63;;;;;;;37.23;48.07;98675.41;5053939;28;20196;-61
2022/08/22 06:24:42;;;;;;;8.27;7.53;;;;;;;37.32;48.08;98683.97;5053541;28;20585;-60
2022/08/22 06:27:13;;;;;;;9.70;7.55;;;;;;;36.89;48.62;98679.72;5053848;28;20198;-61
2022/08/22 06:29:44;;;;;;;12.05;7.78;;;;;;;36.37;50.54;98665.94;5054291;28;20315;-61
2022/08/22 06:32:18;;;;;;;8.88;8.18;;;;;;;35.86;51.91;98677.22;5053841;28;20200;-61
2022/08/22 06:34:46;;;;;;;10.98;8.23;;;;;;;35.63;52.71;98674.34;5053339;28;20232;-62
2022/08/22 06:37:23;;;;;;;10.82;8.80;;;;;;;35.32;52.86;98671.81;5053690;28;20196;-61
2022/08/22 06:39:53;;;;;;;13.30;8.63;;;;;;;36.32;51.23;98683.91;5053613;28;20195;-62
2022/08/22 06:42:25;;;;;;;14.93;8.45;;;;;;;36.87;49.84;98683.69;5053581;28;20210;-62
2022/08/22 06:44:57;;;;;;;12.20;8.25;;;;;;;37.30;49.29;98686.91;5053629;28;20215;-62
2022/08/22 06:47:30;;;;;;;17.13;10.75;;;;;;;37.77;47.18;98673.31;5053418;28;20587;-62
2022/08/22 06:50:01;;;;;;;9.75;8.77;;;;;;;38.04;46.53;98677.09;5053320;28;20224;-62
2022/08/22 06:52:32;;;;;;;8.20;7.40;;;;;;;37.25;46.87;98686.78;5053245;28;20192;-64
2022/08/22 06:55:03;;;;;;;9.15;7.68;;;;;;;36.55;48.68;98678.56;5053506;28;20725;-62
2022/08/22 06:57:34;;;;;;;11.10;7.55;;;;;;;36.59;48.36;98685.13;5053521;28;20287;-62
2022/08/22 07:00:05;;;;;;;10.82;7.95;;;;;;;37.00;48.76;98687.00;5053467;28;20584;-62
2022/08/22 07:02:38;;;;;;;9.57;8.13;;;;;;;37.64;46.49;98689.84;5053127;28;20200;-62
2022/08/22 07:05:09;;;;;;;13.63;8.50;;;;;;;38.18;44.80;98674.97;5052851;28;20281;-62
2022/08/22 07:07:36;;;;;;;11.95;8.32;;;;;;;38.78;44.15;98696.94;5053093;28;20291;-61
2022/08/22 07:10:05;;;;;;;9.98;8.77;;;;;;;38.63;43.72;98663.31;5052519;28;20232;-61
2022/08/22 07:12:36;;;;;;;11.55;10.23;;;;;;;38.56;43.75;98701.44;5052568;28;20214;-62
2022/08/22 07:15:11;;;;;;;15.80;9.27;;;;;;;39.34;42.77;98699.72;5052982;28;20665;-61
2022/08/22 07:17:49;;;;;;;8.68;7.88;;;;;;;39.09;43.07;98705.59;5052567;28;20195;-63
2022/08/22 07:20:23;;;;;;;10.15;7.55;;;;;;;38.06;44.09;98696.66;5052735;28;20196;-62
2022/08/22 07:22:56;;;;;;;8.18;7.22;;;;;;;38.67;44.34;98697.84;5052657;28;20612;-60
2022/08/22 07:25:23;;;;;;;8.38;7.25;;;;;;;39.12;41.53;98691.53;5052723;28;20318;-62
2022/08/22 07:28:04;;;;;;;10.20;8.10;;;;;;;38.97;42.33;98707.56;5052659;28;20709;-62
2022/08/22 07:30:43;;;;;;;8.38;7.55;;;;;;;38.80;41.83;98702.13;5052084;28;20269;-61
2022/08/22 07:33:22;;;;;;;8.45;7.65;;;;;;;38.34;43.27;98670.66;5052663;28;20761;-61
2022/08/22 07:35:57;;;;;;;10.65;8.15;;;;;;;37.27;45.75;98687.38;5052288;28;20234;-61
2022/08/22 07:38:41;;;;;;;8.70;7.82;;;;;;;36.30;48.48;98691.41;5052722;28;20206;-61
2022/08/22 07:41:15;;;;;;;10.15;8.07;;;;;;;35.96;50.25;98682.91;5052378;28;20232;-61
2022/08/22 07:43:48;;;;;;;9.23;8.27;;;;;;;34.83;52.52;98686.94;5052209;28;20206;-61
2022/08/22 07:46:26;;;;;;;9.73;8.20;;;;;;;34.10;53.48;98683.84;5052690;28;20589;-60
2022/08/22 07:48:59;;;;;;;9.27;8.20;;;;;;;34.12;53.93;98679.91;5052354;28;20254;-60
2022/08/22 07:51:34;;;;;;;11.27;8.05;;;;;;;33.92;53.78;98681.03;5052373;28;20312;-61
2022/08/22 07:54:06;;;;;;;9.30;8.15;;;;;;;33.83;54.02;98683.97;5052247;28;20203;-61
2022/08/22 07:56:38;;;;;;;9.07;8.27;;;;;;;34.10;52.62;98673.06;5052451;28;20201;-60
2022/08/22 07:59:08;;;;;;;10.57;8.73;;;;;;;34.56;52.74;98684.41;5052454;28;20219;-60
2022/08/22 08:01:38;;;;;;;10.48;8.18;;;;;;;33.89;54.04;98676.91;5051978;28;20197;-60
2022/08/22 08:04:11;;;;;;;8.40;7.68;;;;;;;33.42;55.43;98676.19;5051974;28;20193;-61
2022/08/22 08:06:39;;;;;;;9.63;8.60;;;;;;;34.27;53.24;98679.66;5052051;28;20933;-62
2022/08/22 08:09:13;;;;;;;15.48;9.25;;;;;;;35.75;50.66;98679.84;5052304;28;20746;-61
2022/08/22 08:11:43;;;;;;;8.82;8.00;;;;;;;36.82;46.91;98683.56;5052842;28;20224;-61
2022/08/22 08:14:15;;;;;;;9.68;8.55;;;;;;;37.18;45.88;98680.69;5052307;28;20286;-61
2022/08/22 08:16:47;;;;;;;9.57;8.50;;;;;;;37.26;45.50;98685.72;5051781;28;20428;-61
2022/08/22 08:19:19;;;;;;;8.63;7.65;;;;;;;38.00;42.91;98684.09;5052119;28;20206;-61
2022/08/22 08:21:52;;;;;;;9.32;8.43;;;;;;;38.97;42.52;98683.16;5051572;28;20187;-61
2022/08/22 08:24:24;;;;;;;13.25;8.88;;;;;;;39.16;40.61;98685.38;5051615;28;20206;-61
2022/08/22 08:29:40;;;;;;;11.75;8.98;;;;;;;40.22;39.55;98694.09;5051339;28;20218;-61
2022/08/22 08:32:10;;;;;;;10.55;9.15;;;;;;;40.35;37.95;98687.44;5051542;28;20733;-64
2022/08/22 08:34:39;;;;;;;10.20;9.40;;;;;;;40.32;37.89;98687.13;5051110;28;20242;-63
2022/08/22 08:37:15;;;;;;;15.63;10.15;;;;;;;40.27;38.05;98690.63;5051311;28;20633;-61
2022/08/22 08:39:49;;;;;;;10.68;9.68;;;;;;;39.80;39.02;98663.16;5051376;28;20195;-60
2022/08/22 08:46:06;;;;;;;13.00;10.90;;;;;;;39.21;40.26;98676.47;5051174;28;20253;-63
2022/08/22 08:49:10;;;;;;;11.63;10.63;;;;;;;38.99;40.51;98681.00;5046097;28;20195;-62
2022/08/22 08:52:02;;;;;;;14.10;11.15;;;;;;;38.77;41.19;98664.63;5038375;28;20305;-60
2022/08/22 08:54:54;;;;;;;13.85;11.45;;;;;;;38.33;41.83;98647.31;5051351;28;20704;-61
2022/08/22 08:57:35;;;;;;;13.52;11.43;;;;;;;37.38;44.19;98655.94;5050890;28;20192;-60
2022/08/22 09:00:09;;;;;;;15.10;12.82;;;;;;;35.96;47.26;98658.59;5050919;28;20222;-61
2022/08/22 09:02:50;;;;;;;13.82;12.45;;;;;;;35.81;48.18;98655.47;5050637;28;20204;-60
2022/08/22 09:05:49;;;;;;;14.55;13.00;;;;;;;35.76;48.81;98649.94;5050875;28;20700;-63
2022/08/22 09:08:54;;;;;;;18.40;13.30;;;;;;;35.11;49.79;98646.84;5050642;28;20200;-61
2022/08/22 09:11:56;;;;;;;16.08;13.65;;;;;;;34.92;51.14;98642.47;5050668;28;20608;-59
2022/08/22 09:14:47;;;;;;;14.68;13.23;;;;;;;34.10;52.97;98641.56;5050714;28;20226;-62
2022/08/22 09:17:53;;;;;;;18.10;15.07;;;;;;;33.47;56.11;98625.28;5050359;28;20193;-62
2022/08/22 09:20:37;;;;;;;17.77;14.70;;;;;;;33.60;56.07;98620.91;5055103;28;20204;-62
2022/08/22 09:23:44;;;;;;;18.80;15.88;;;;;;;34.65;54.04;98631.09;5052644;28;20232;-62
2022/08/22 09:26:17;;;;;;;19.25;16.35;;;;;;;35.38;51.27;98630.41;5050561;28;20245;-61
2022/08/22 09:28:53;;;;;;;20.58;16.25;;;;;;;36.12;49.45;98629.31;5050765;28;20280;-62
2022/08/22 09:31:36;;;;;;;20.75;18.08;;;;;;;36.88;46.99;98629.38;5050567;28;20224;-62
2022/08/22 09:34:11;;;;;;;25.45;19.08;;;;;;;37.41;46.26;98634.63;5050333;28;21040;-61
2022/08/22 09:36:55;;;;;;;23.52;18.88;;;;;;;37.00;45.91;98632.91;5050640;28;20196;-62
2022/08/22 09:39:31;;;;;;;19.70;17.42;;;;;;;36.83;44.56;98621.13;5050392;28;20281;-62
2022/08/22 09:42:11;;;;;;;20.52;18.52;;;;;;;37.15;44.52;98637.81;5050466;28;20198;-63
2022/08/22 09:44:48;;;;;;;20.92;17.58;;;;;;;37.51;43.20;98639.44;5050198;28;20291;-63
2022/08/22 09:47:23;;;;;;;18.58;17.02;;;;;;;37.85;41.56;98626.06;5050246;28;20295;-63
2022/08/22 09:50:03;;;;;;;21.75;19.77;;;;;;;37.00;43.71;98610.44;5050335;28;20321;-63
2022/08/22 09:52:50;;;;;;;19.30;17.42;;;;;;;37.72;41.55;98628.00;5050287;28;20208;-63
2022/08/22 09:55:34;;;;;;;21.48;19.38;;;;;;;37.11;44.70;98617.72;5050275;28;20685;-62
2022/08/22 09:58:09;;;;;;;19.92;17.98;;;;;;;37.83;43.81;98612.75;5050231;28;20286;-61
2022/08/22 10:00:45;;;;;;;19.90;18.10;;;;;;;38.17;42.35;98618.28;5050273;28;20681;-62
2022/08/22 10:03:19;;;;;;;19.40;17.40;;;;;;;38.14;41.39;98616.91;5049949;28;20204;-62
2022/08/22 10:05:53;;;;;;;18.48;16.80;;;;;;;37.57;42.65;98619.53;5050089;28;20198;-63
2022/08/22 10:08:36;;;;;;;18.08;16.27;;;;;;;36.71;45.59;98618.41;5050146;28;20565;-62
2022/08/22 10:11:17;;;;;;;21.27;18.27;;;;;;;35.63;47.64;98609.56;5050391;28;20589;-62
2022/08/22 10:13:58;;;;;;;19.95;17.88;;;;;;;35.17;49.89;98596.59;5049771;28;20235;-62
2022/08/22 10:16:35;;;;;;;20.48;18.15;;;;;;;34.79;50.81;98599.44;5050112;28;20207;-62
2022/08/22 10:19:15;;;;;;;18.67;16.70;;;;;;;34.54;51.54;98594.03;5050198;28;20196;-61
2022/08/22 10:21:51;;;;;;;20.63;18.48;;;;;;;34.13;53.32;98598.06;5050288;28;20192;-62
2022/08/22 10:24:33;;;;;;;21.23;18.40;;;;;;;33.33;54.73;98601.31;5050655;28;20303;-62
2022/08/22 10:27:07;;;;;;;24.40;18.83;;;;;;;32.79;56.87;98594.38;5049921;28;20211;-61
2022/08/22 10:29:57;;;;;;;24.05;21.48;;;;;;;32.06;59.38;98594.28;5049728;28;20204;-61
2022/08/22 10:32:33;;;;;;;23.70;20.15;;;;;;;31.61;58.54;98593.09;5049331;28;20226;-61
2022/08/22 10:35:09;;;;;;;21.75;19.30;;;;;;;31.41;60.75;98586.84;5049538;28;20235;-61
2022/08/22 10:37:40;;;;;;;24.60;20.27;;;;;;;31.39;61.53;98588.88;5049776;28;20220;-61
2022/08/22 10:40:13;;;;;;;20.75;18.10;;;;;;;31.21;61.34;98588.59;5050241;28;20315;-61
2022/08/22 10:42:50;;;;;;;21.33;18.95;;;;;;;31.04;61.21;98591.56;5049696;28;20206;-62
2022/08/22 10:45:28;;;;;;;22.40;19.60;;;;;;;30.93;61.90;98592.13;5049741;28;20202;-61
2022/08/22 10:48:24;;;;;;;23.08;18.88;;;;;;;30.37;64.92;98591.25;5049674;28;20683;-61
2022/08/22 10:50:56;;;;;;;21.90;19.17;;;;;;;30.25;65.20;98576.72;5049557;28;20770;-61
2022/08/22 10:53:33;;;;;;;22.88;20.55;;;;;;;30.25;65.30;98585.56;5049535;28;20667;-62
2022/08/22 10:56:10;;;;;;;23.13;18.63;;;;;;;30.03;65.66;98540.28;5049952;28;20200;-62
2022/08/22 10:58:43;;;;;;;24.15;18.33;;;;;;;30.32;64.36;98588.34;5049636;28;20203;-61
2022/08/22 11:01:15;;;;;;;22.17;19.00;;;;;;;30.39;65.21;98577.66;5049717;28;20190;-62
2022/08/22 11:03:51;;;;;;;21.45;19.25;;;;;;;30.35;66.17;98582.59;5049812;28;20189;-61
2022/08/22 11:06:26;;;;;;;20.52;18.50;;;;;;;30.32;66.91;98575.78;5052036;28;20196;-60
2022/08/22 11:09:08;;;;;;;19.90;17.38;;;;;;;30.32;66.28;98575.78;5055487;28;20653;-61
2022/08/22 11:11:42;;;;;;;19.00;16.85;;;;;;;30.18;67.76;98578.53;5072380;28;20232;-61
2022/08/22 11:14:24;;;;;;;20.10;18.00;;;;;;;30.05;67.90;98560.47;5070362;28;20202;-61
2022/08/22 11:17:03;;;;;;;19.48;17.63;;;;;;;30.08;67.93;98568.13;5071875;28;20271;-59
2022/08/22 11:19:46;;;;;;;23.48;18.88;;;;;;;30.02;68.17;98566.25;5071713;28;20226;-62
2022/08/22 11:22:29;;;;;;;18.58;16.63;;;;;;;30.11;67.52;98567.75;5069799;28;20270;-62
2022/08/22 11:25:20;;;;;;;21.67;17.17;;;;;;;30.09;68.44;98567.13;5070358;28;20200;-58
2022/08/22 11:28:22;;;;;;;20.75;17.35;;;;;;;30.20;67.99;98557.75;5072463;28;20677;-59
2022/08/22 11:31:03;;;;;;;18.50;16.60;;;;;;;30.08;67.29;98552.06;5072177;28;20223;-58
2022/08/22 11:33:40;;;;;;;21.88;17.45;;;;;;;30.17;68.60;98553.59;5072242;28;20286;-58
2022/08/22 11:36:26;;;;;;;22.60;17.23;;;;;;;30.11;69.89;98553.56;5072315;28;20250;-58
2022/08/22 11:39:06;;;;;;;18.92;16.88;;;;;;;30.01;69.67;98547.69;5072232;28;20196;-59
2022/08/22 11:41:39;;;;;;;17.95;16.23;;;;;;;30.04;70.63;98545.44;5072380;28;20196;-58
2022/08/22 11:44:12;;;;;;;18.08;16.08;;;;;;;30.15;69.95;98550.28;5072024;28;20196;-58
2022/08/22 11:46:42;;;;;;;19.58;16.88;;;;;;;30.06;70.59;98550.59;5072335;28;20207;-61
2022/08/22 11:49:29;;;;;;;19.65;17.23;;;;;;;30.03;70.11;98543.78;5072645;28;20666;-62
2022/08/22 11:52:17;;;;;;;17.35;15.27;;;;;;;30.09;69.76;98545.72;5072171;28;20681;-62
2022/08/22 11:55:11;;;;;;;18.67;16.80;;;;;;;29.96;69.21;98545.59;5072070;28;20199;-62
2022/08/22 11:57:41;;;;;;;18.65;16.63;;;;;;;29.73;70.51;98551.06;5071930;28;20199;-58
2022/08/22 12:00:26;;;;;;;20.88;16.63;;;;;;;29.85;70.31;98549.56;5071737;28;20666;-58
2022/08/22 12:03:27;;;;;;;21.15;18.23;;;;;;;29.89;71.22;98553.53;5071638;28;20666;-57
2022/08/22 12:06:06;;;;;;;29.35;24.75;;;;;;;29.85;73.18;98546.06;5071708;28;20200;-58
2022/08/22 12:09:15;;;;;;;24.15;20.02;;;;;;;29.88;73.79;98538.47;5071505;28;20579;-58
2022/08/22 12:11:57;;;;;;;36.53;20.58;;;;;;;29.92;74.96;98541.59;5072158;28;20226;-61
2022/08/22 12:14:28;;;;;;;54.55;19.17;;;;;;;29.99;75.27;98550.56;5071565;28;20207;-62
2022/08/22 12:17:06;;;;;;;21.95;17.15;;;;;;;29.85;75.02;98543.38;5070235;28;20204;-62
2022/08/22 12:19:38;;;;;;;19.27;16.40;;;;;;;29.63;75.61;98537.19;5071892;28;20196;-62
2022/08/22 12:22:45;;;;;;;22.25;16.80;;;;;;;29.58;76.57;98559.13;5071684;28;20206;-62